Arrey, New Mexico
Current Conditions -  °F | °C
As of 6:53 PM on Saturday 25 Oct 2014 (Local Time) from KTCS Reporting Station
Clear Clear  
Wind Chill: 73°   Ceiling: Unl
Heat Index: 73°   Visibility: 10mi
Dew Point: 44°   Wind: 7mph
Humidity: 35%   Direction: 130°SE
Pressure: 30.14"   Gusts: NA
Location:  32.79°N, 107.32°W
Report Text: KTCS 260053Z AUTO 13006KT 10SM CLR 23/07 A3014 RMK AO2 SLP145 T02280067 TSNO
Loading
Personal Weather Stations






























Interactive Weather Map
Tropical Storm Tracking
New forecast layout! Learn more

10-Day Weather Forecast

Advertisements
Track Severe Weather on mobile